Time;durP1;ratioP1;P1;durP2;ratioP2;P2;SDS_P1;SDS_P2;PMS_P1;PMS_P2;Temp;Humidity;BMP_temperature;BMP_pressure;BME280_temperature;BME280_humidity;BME280_pressure;Samples;Min_cycle;Max_cycle;Signal;HPM_P1;HPM_P2
2022/05/01 00:01:53;;;;;;;6.20;5.60;;;20.20;50.50;;;;;;5019975;28;20254;-68
2022/05/01 00:04:21;;;;;;;6.88;6.18;;;20.20;50.50;;;;;;5035063;28;20212;-69
2022/05/01 00:06:48;;;;;;;6.78;6.18;;;20.20;50.50;;;;;;5035511;28;20201;-69
2022/05/01 00:09:15;;;;;;;5.55;5.05;;;20.20;50.40;;;;;;5018717;28;20229;-69
2022/05/01 00:11:42;;;;;;;7.13;5.80;;;20.10;50.30;;;;;;5018922;28;20676;-69
2022/05/01 00:14:10;;;;;;;6.65;6.05;;;20.10;50.30;;;;;;5035057;28;20192;-69
2022/05/01 00:16:37;;;;;;;6.97;5.60;;;20.10;50.30;;;;;;5018572;28;20204;-69
2022/05/01 00:19:04;;;;;;;6.82;6.03;;;20.10;50.40;;;;;;5034995;28;20221;-69
2022/05/01 00:21:32;;;;;;;6.22;5.50;;;20.10;50.30;;;;;;5035240;28;20291;-69
2022/05/01 00:24:00;;;;;;;5.78;5.22;;;20.10;50.30;;;;;;5018534;28;20216;-69
2022/05/01 00:26:28;;;;;;;6.32;5.72;;;20.10;50.30;;;;;;5020512;28;20267;-70
2022/05/01 00:28:56;;;;;;;6.18;5.65;;;20.00;50.30;;;;;;5019007;28;20216;-69
2022/05/01 00:31:23;;;;;;;6.50;5.90;;;20.00;50.20;;;;;;5019952;28;20189;-69
2022/05/01 00:36:36;;;;;;;6.68;6.07;;;20.10;50.30;;;;;;5020520;28;20268;-69
2022/05/01 00:39:03;;;;;;;6.60;6.00;;;20.00;50.20;;;;;;5034999;28;20224;-69
2022/05/01 00:41:31;;;;;;;6.30;5.70;;;20.00;50.20;;;;;;5018354;28;20729;-69
2022/05/01 00:44:03;;;;;;;6.43;5.78;;;20.00;50.30;;;;;;5016702;28;20239;-69
2022/05/01 00:46:31;;;;;;;6.10;5.50;;;20.00;50.20;;;;;;5015514;28;20199;-69
2022/05/01 00:49:00;;;;;;;5.40;4.90;;;20.00;50.20;;;;;;5015680;28;20212;-70
2022/05/01 00:51:29;;;;;;;5.07;4.68;;;20.00;50.20;;;;;;5034282;28;20562;-69
2022/05/01 00:53:57;;;;;;;6.78;5.95;;;20.00;50.90;;;;;;5018792;28;20199;-70
2022/05/01 00:56:25;;;;;;;5.13;4.60;;;19.90;50.20;;;;;;5018000;28;20665;-69
2022/05/01 00:58:52;;;;;;;6.50;5.20;;;19.90;50.20;;;;;;5014960;28;20225;-69
2022/05/01 01:01:20;;;;;;;5.70;5.20;;;20.00;50.20;;;;;;5031428;28;20201;-69
2022/05/01 01:03:46;;;;;;;5.43;4.93;;;19.90;50.10;;;;;;5015240;28;20221;-69
2022/05/01 01:06:14;;;;;;;5.40;4.90;;;19.90;50.10;;;;;;5016361;28;20185;-69
2022/05/01 01:08:41;;;;;;;5.70;5.18;;;19.90;50.10;;;;;;5031154;28;20705;-69
2022/05/01 01:11:09;;;;;;;5.22;4.72;;;20.00;50.20;;;;;;5031474;28;20197;-69
2022/05/01 01:13:36;;;;;;;5.38;4.72;;;19.90;50.10;;;;;;5031341;28;20546;-69
2022/05/01 01:16:08;;;;;;;6.30;5.70;;;19.90;49.90;;;;;;5031120;28;20207;-69
2022/05/01 01:18:36;;;;;;;5.72;5.07;;;19.90;49.80;;;;;;5014614;28;20212;-69
2022/05/01 01:21:04;;;;;;;5.22;4.72;;;19.90;49.80;;;;;;5031085;28;20201;-69
2022/05/01 01:23:31;;;;;;;5.95;5.45;;;19.90;49.80;;;;;;5014668;28;20197;-69
2022/05/01 01:25:58;;;;;;;6.43;5.28;;;19.90;49.70;;;;;;5014469;28;20573;-69
2022/05/01 01:28:26;;;;;;;5.93;5.43;;;19.90;49.70;;;;;;5030805;28;20228;-69
2022/05/01 01:33:37;;;;;;;5.28;4.82;;;19.90;49.60;;;;;;5014647;28;20200;-69
2022/05/01 01:36:06;;;;;;;6.38;5.57;;;19.90;49.60;;;;;;5016299;28;20200;-69
2022/05/01 01:38:33;;;;;;;5.82;5.20;;;19.90;49.70;;;;;;5014218;28;20228;-69
2022/05/01 01:41:01;;;;;;;5.72;5.22;;;19.90;49.60;;;;;;5030696;28;20208;-69
2022/05/01 01:43:29;;;;;;;6.45;5.10;;;19.90;49.70;;;;;;5030714;28;20201;-69
2022/05/01 01:45:57;;;;;;;5.72;5.22;;;19.90;49.80;;;;;;5014124;28;20228;-69
2022/05/01 01:48:24;;;;;;;5.60;5.03;;;19.90;49.70;;;;;;5030608;28;20213;-69
2022/05/01 01:50:58;;;;;;;6.10;5.60;;;19.90;49.70;;;;;;5014045;28;20648;-69
2022/05/01 01:53:27;;;;;;;5.95;5.35;;;19.90;49.80;;;;;;5013901;28;20724;-69
2022/05/01 01:55:54;;;;;;;6.20;5.47;;;19.90;49.80;;;;;;5013818;28;20300;-69
2022/05/01 01:58:21;;;;;;;5.60;5.10;;;19.80;49.80;;;;;;5030255;28;20239;-69
2022/05/01 02:00:48;;;;;;;5.85;5.20;;;19.80;50.00;;;;;;5030293;28;20200;-69
2022/05/01 02:03:15;;;;;;;5.47;4.97;;;19.80;49.80;;;;;;5013837;28;20196;-69
2022/05/01 02:05:43;;;;;;;5.88;5.38;;;19.80;49.70;;;;;;5030499;28;20220;-69
2022/05/01 02:08:11;;;;;;;5.53;4.88;;;19.80;49.80;;;;;;5030026;28;20225;-69
2022/05/01 02:10:40;;;;;;;6.15;5.55;;;19.80;49.80;;;;;;5013785;28;20201;-69
2022/05/01 02:13:07;;;;;;;5.70;5.20;;;19.80;49.80;;;;;;5014012;28;20211;-69
2022/05/01 02:15:35;;;;;;;6.88;6.25;;;19.70;49.70;;;;;;5018889;28;20181;-70
2022/05/01 02:18:02;;;;;;;6.10;5.50;;;19.80;49.80;;;;;;5030179;28;20244;-69
2022/05/01 02:21:33;;;;;;;5.93;5.32;;;19.80;49.70;;;;;;5013507;28;20207;-69
2022/05/01 02:23:17;;;;;;;5.78;5.28;;;19.70;49.70;;;;;;5014504;28;20290;-69
2022/05/01 02:25:45;;;;;;;5.40;4.80;;;19.80;49.80;;;;;;5030996;28;20224;-69
2022/05/01 02:28:16;;;;;;;6.38;5.78;;;19.70;49.70;;;;;;5013375;28;20227;-69
2022/05/01 02:30:43;;;;;;;6.53;5.93;;;19.70;49.80;;;;;;5029827;28;20197;-69
2022/05/01 02:33:10;;;;;;;6.45;5.85;;;19.70;49.70;;;;;;5029730;28;20580;-69
2022/05/01 02:35:37;;;;;;;6.47;5.88;;;19.70;49.70;;;;;;5013474;28;20207;-69
2022/05/01 02:38:04;;;;;;;5.40;5.00;;;19.70;49.70;;;;;;5014318;28;20800;-69
2022/05/01 02:40:31;;;;;;;6.18;5.57;;;19.70;49.80;;;;;;5014380;28;20185;-68
2022/05/01 02:42:59;;;;;;;5.50;5.00;;;19.70;49.70;;;;;;5013721;28;20579;-69
2022/05/01 02:45:27;;;;;;;5.88;5.38;;;19.70;49.60;;;;;;5014256;28;20267;-69
2022/05/01 02:47:54;;;;;;;6.57;5.97;;;19.70;49.50;;;;;;5029701;28;20220;-69
2022/05/01 02:50:21;;;;;;;5.90;5.30;;;19.70;49.40;;;;;;5014165;28;20199;-69
2022/05/01 02:52:51;;;;;;;5.72;5.22;;;19.70;49.30;;;;;;5012934;28;20208;-69
2022/05/01 02:55:18;;;;;;;5.70;5.20;;;19.70;49.40;;;;;;5029379;28;20678;-69
2022/05/01 02:57:47;;;;;;;6.20;5.68;;;19.70;49.40;;;;;;5014348;28;20712;-69
2022/05/01 03:00:17;;;;;;;6.43;5.82;;;19.70;49.40;;;;;;5029791;28;20231;-69
2022/05/01 03:02:45;;;;;;;5.97;5.47;;;19.60;49.30;;;;;;5012866;28;20785;-69
2022/05/01 03:05:13;;;;;;;6.90;6.22;;;19.70;49.40;;;;;;5029302;28;20327;-69
2022/05/01 03:07:40;;;;;;;6.28;5.68;;;19.70;49.30;;;;;;5029286;28;20259;-69
2022/05/01 03:10:08;;;;;;;6.10;5.60;;;19.60;49.30;;;;;;5012705;28;20196;-70
2022/05/01 03:12:37;;;;;;;6.55;5.95;;;19.60;49.20;;;;;;5012622;28;20200;-69
2022/05/01 03:15:05;;;;;;;6.43;5.82;;;19.60;49.20;;;;;;5014135;28;20665;-69
2022/05/01 03:23:00;;;;;;;6.25;5.65;;;19.60;49.20;;;;;;5012456;28;20196;-69
2022/05/01 03:25:27;;;;;;;7.88;6.07;;;19.60;49.20;;;;;;5028831;28;20223;-68
2022/05/01 03:27:55;;;;;;;6.53;5.93;;;19.60;49.10;;;;;;5013801;28;20216;-69
2022/05/01 03:30:22;;;;;;;6.15;5.55;;;19.60;49.10;;;;;;5028938;28;20200;-69
2022/05/01 03:32:50;;;;;;;7.03;6.32;;;19.60;49.20;;;;;;5013727;28;20289;-69
2022/05/01 03:35:17;;;;;;;7.03;6.43;;;19.60;49.00;;;;;;5012477;28;20607;-68
2022/05/01 03:38:04;;;;;;;7.00;6.18;;;19.60;49.10;;;;;;5013619;28;20316;-69
2022/05/01 03:40:31;;;;;;;5.50;5.00;;;19.60;49.00;;;;;;5028987;28;20737;-68
2022/05/01 03:42:58;;;;;;;6.18;5.63;;;19.60;49.00;;;;;;5013918;28;20193;-69
2022/05/01 03:45:25;;;;;;;6.82;6.18;;;19.70;49.00;;;;;;5028770;28;20216;-69
2022/05/01 03:47:53;;;;;;;7.35;6.65;;;19.80;48.90;;;;;;5012158;28;20596;-69
2022/05/01 03:50:20;;;;;;;7.07;6.43;;;19.80;48.70;;;;;;5013630;28;20220;-69
2022/05/01 03:52:47;;;;;;;6.35;5.75;;;19.80;48.60;;;;;;5028974;28;20688;-69
2022/05/01 03:55:14;;;;;;;6.47;5.90;;;19.90;48.50;;;;;;5028899;28;20193;-70
2022/05/01 03:57:42;;;;;;;7.25;6.55;;;19.90;48.40;;;;;;5028913;28;20224;-69
2022/05/01 04:00:10;;;;;;;6.95;6.25;;;19.90;48.30;;;;;;5013351;28;20208;-70
2022/05/01 04:02:42;;;;;;;6.57;5.97;;;19.90;48.30;;;;;;5028721;28;20654;-69
2022/05/01 04:05:11;;;;;;;6.75;5.90;;;19.90;48.30;;;;;;5012326;28;20335;-69
2022/05/01 04:07:39;;;;;;;7.93;7.13;;;19.90;48.30;;;;;;5011991;28;20203;-69
2022/05/01 04:10:07;;;;;;;7.70;6.75;;;19.90;48.10;;;;;;5028983;28;20189;-69
2022/05/01 04:12:36;;;;;;;7.07;6.38;;;20.00;48.20;;;;;;5028639;28;20263;-69
2022/05/01 04:15:07;;;;;;;6.38;5.78;;;19.90;48.00;;;;;;5028454;28;20188;-69
2022/05/01 04:17:38;;;;;;;8.05;7.32;;;19.90;48.10;;;;;;5012188;28;20197;-69
2022/05/01 04:20:08;;;;;;;7.28;6.43;;;19.90;48.00;;;;;;5019538;28;20658;-70
2022/05/01 04:22:40;;;;;;;7.95;7.18;;;19.90;48.00;;;;;;5017983;28;20231;-69
2022/05/01 04:25:14;;;;;;;7.72;6.95;;;19.90;48.00;;;;;;5032322;28;20697;-69
2022/05/01 04:27:40;;;;;;;7.72;7.03;;;19.90;48.00;;;;;;5017347;28;20224;-69
2022/05/01 04:30:08;;;;;;;7.80;7.10;;;19.90;47.90;;;;;;5015572;28;20193;-69
2022/05/01 04:32:47;;;;;;;7.13;6.43;;;19.90;47.90;;;;;;5016946;28;20674;-69
2022/05/01 04:35:14;;;;;;;6.97;6.38;;;19.90;47.90;;;;;;5032626;28;20193;-69
2022/05/01 04:37:42;;;;;;;7.18;6.47;;;19.90;47.90;;;;;;5017046;28;20213;-69
2022/05/01 04:40:11;;;;;;;7.05;6.40;;;19.90;47.90;;;;;;5016941;28;20215;-69
2022/05/01 04:42:38;;;;;;;7.45;6.75;;;19.90;47.90;;;;;;5015785;28;20633;-69
2022/05/01 04:45:06;;;;;;;8.93;8.15;;;19.90;48.00;;;;;;5031992;28;20767;-69
2022/05/01 04:47:33;;;;;;;7.13;6.43;;;19.90;47.70;;;;;;5031923;28;20197;-69
2022/05/01 04:49:59;;;;;;;6.90;6.30;;;19.90;47.70;;;;;;5032142;28;20684;-70
2022/05/01 04:52:27;;;;;;;6.70;6.00;;;19.90;47.70;;;;;;5031954;28;20251;-69
2022/05/01 04:54:55;;;;;;;7.55;6.75;;;20.00;47.80;;;;;;5031662;28;20196;-69
2022/05/01 04:57:22;;;;;;;7.72;7.03;;;19.90;47.60;;;;;;5015019;28;20193;-69
2022/05/01 04:59:49;;;;;;;6.60;6.00;;;19.90;47.50;;;;;;5031719;28;20243;-69
2022/05/01 05:02:16;;;;;;;6.25;5.68;;;19.90;47.50;;;;;;5031316;28;20201;-69
2022/05/01 05:04:43;;;;;;;6.82;6.22;;;19.90;47.70;;;;;;5014830;28;20619;-69
2022/05/01 05:07:10;;;;;;;7.72;6.78;;;19.90;47.50;;;;;;5031459;28;20601;-71
2022/05/01 05:09:54;;;;;;;6.93;6.25;;;20.00;47.50;;;;;;5030932;28;20228;-69
2022/05/01 05:12:23;;;;;;;7.85;7.10;;;20.00;47.60;;;;;;5015084;28;20227;-69
2022/05/01 05:14:51;;;;;;;7.38;6.72;;;20.00;47.50;;;;;;5015228;28;20197;-69
2022/05/01 05:17:19;;;;;;;8.23;7.38;;;20.00;47.40;;;;;;5017575;28;20260;-69
2022/05/01 05:19:46;;;;;;;7.10;6.47;;;20.00;47.40;;;;;;5034115;28;20201;-69
2022/05/01 05:22:13;;;;;;;8.68;7.88;;;20.00;47.40;;;;;;5017309;28;20196;-69
2022/05/01 05:24:40;;;;;;;6.68;6.00;;;20.00;47.40;;;;;;5031162;28;20196;-69
2022/05/01 05:27:07;;;;;;;7.07;6.47;;;20.00;47.50;;;;;;5031120;28;20189;-69
2022/05/01 05:29:36;;;;;;;7.78;7.07;;;20.00;47.40;;;;;;5030600;28;20236;-69
2022/05/01 05:32:04;;;;;;;7.18;6.47;;;20.00;47.30;;;;;;5015975;28;20224;-69
2022/05/01 05:34:31;;;;;;;7.05;6.45;;;20.00;47.40;;;;;;5014596;28;20211;-69
2022/05/01 05:36:58;;;;;;;7.00;6.40;;;20.00;47.20;;;;;;5016105;28;20244;-69
2022/05/01 05:39:25;;;;;;;7.75;7.05;;;20.00;47.30;;;;;;5015793;28;20697;-69
2022/05/01 05:41:52;;;;;;;7.70;7.03;;;20.00;47.20;;;;;;5030736;28;20207;-69
2022/05/01 05:44:19;;;;;;;6.30;5.80;;;20.00;47.20;;;;;;5031043;28;20201;-69
2022/05/01 05:46:47;;;;;;;7.60;6.90;;;20.00;47.10;;;;;;5030643;28;20220;-69
2022/05/01 05:49:14;;;;;;;5.40;4.93;;;20.10;47.10;;;;;;5030895;28;20307;-69
2022/05/01 05:51:41;;;;;;;6.30;5.80;;;20.10;47.20;;;;;;5014080;28;20197;-69
2022/05/01 05:54:08;;;;;;;7.43;6.72;;;20.10;47.20;;;;;;5031304;28;20197;-69
2022/05/01 05:56:35;;;;;;;7.22;6.63;;;20.10;47.10;;;;;;5015396;28;20185;-69
2022/05/01 05:59:02;;;;;;;6.20;5.60;;;20.10;47.00;;;;;;5030340;28;20225;-69
2022/05/01 06:01:29;;;;;;;8.52;7.72;;;20.10;47.00;;;;;;5030244;28;20201;-69
2022/05/01 06:03:57;;;;;;;8.15;7.45;;;20.10;46.90;;;;;;5015262;28;20288;-69
2022/05/01 06:06:24;;;;;;;8.95;8.13;;;20.10;46.80;;;;;;5030390;28;20224;-69
2022/05/01 06:08:51;;;;;;;7.50;6.90;;;20.10;46.80;;;;;;5013687;28;20235;-69
2022/05/01 06:11:18;;;;;;;6.25;5.72;;;20.10;46.80;;;;;;5030129;28;20579;-69
2022/05/01 06:13:45;;;;;;;8.73;6.68;;;20.10;46.80;;;;;;5030158;28;20693;-69
2022/05/01 06:16:12;;;;;;;8.23;7.40;;;20.20;46.90;;;;;;5014873;28;20189;-69
2022/05/01 06:18:39;;;;;;;7.50;6.88;;;20.20;46.80;;;;;;5013481;28;20225;-69
2022/05/01 06:21:08;;;;;;;8.27;7.45;;;20.20;46.90;;;;;;5030338;28;20210;-69
2022/05/01 06:23:36;;;;;;;8.27;7.40;;;20.20;46.70;;;;;;5013440;28;20205;-69
2022/05/01 06:26:04;;;;;;;8.48;7.68;;;20.20;46.60;;;;;;5013498;28;20243;-69
2022/05/01 06:28:31;;;;;;;8.48;7.70;;;20.20;46.60;;;;;;5014501;28;20209;-70
2022/05/01 06:30:58;;;;;;;8.45;7.63;;;20.20;46.60;;;;;;5029905;28;20201;-69
2022/05/01 06:33:25;;;;;;;8.10;7.32;;;20.20;46.60;;;;;;5030014;28;20188;-69
2022/05/01 06:35:54;;;;;;;8.27;7.47;;;20.20;46.80;;;;;;5029755;28;20679;-69
2022/05/01 06:38:22;;;;;;;8.85;8.10;;;20.30;46.70;;;;;;5012944;28;20224;-69
2022/05/01 06:40:49;;;;;;;8.02;7.22;;;20.30;46.60;;;;;;5014302;28;20199;-69
2022/05/01 06:43:16;;;;;;;8.50;7.70;;;20.30;46.40;;;;;;5013956;28;20243;-69
2022/05/01 06:45:45;;;;;;;7.97;7.20;;;20.30;46.80;;;;;;5012933;28;20228;-69
2022/05/01 06:48:11;;;;;;;8.38;7.68;;;20.40;46.30;;;;;;5012868;28;20227;-69
2022/05/01 06:50:38;;;;;;;8.38;7.57;;;20.40;46.20;;;;;;5029399;28;20295;-69
2022/05/01 06:53:06;;;;;;;6.93;6.35;;;20.40;46.10;;;;;;5029647;28;20203;-69
2022/05/01 06:55:34;;;;;;;8.40;7.60;;;20.50;46.20;;;;;;5012921;28;20200;-68
2022/05/01 06:58:01;;;;;;;8.20;7.40;;;20.50;46.20;;;;;;5029322;28;20304;-69
2022/05/01 07:00:29;;;;;;;8.48;7.78;;;20.50;46.20;;;;;;5012834;28;20561;-69
2022/05/01 07:02:56;;;;;;;8.20;7.15;;;20.50;46.20;;;;;;5029518;28;20224;-69
2022/05/01 07:05:23;;;;;;;7.45;6.75;;;20.60;45.90;;;;;;5029236;28;20207;-69
2022/05/01 07:07:50;;;;;;;7.72;6.95;;;20.60;45.70;;;;;;5012806;28;20235;-69
2022/05/01 07:10:17;;;;;;;7.70;7.00;;;20.60;45.60;;;;;;5029171;28;20214;-69
2022/05/01 07:12:46;;;;;;;8.05;7.35;;;20.60;45.50;;;;;;5014064;28;20185;-69
2022/05/01 07:15:13;;;;;;;7.47;6.78;;;20.70;45.60;;;;;;5029842;28;20197;-69
2022/05/01 07:17:41;;;;;;;7.88;7.18;;;20.70;45.60;;;;;;5012781;28;20308;-70
2022/05/01 07:20:09;;;;;;;7.70;6.97;;;20.70;45.50;;;;;;5029403;28;20737;-69
2022/05/01 07:22:36;;;;;;;7.82;7.03;;;20.70;45.50;;;;;;5012528;28;20204;-69
2022/05/01 07:25:03;;;;;;;6.78;6.18;;;20.80;45.40;;;;;;5028901;28;20205;-69
2022/05/01 07:27:30;;;;;;;7.68;7.07;;;20.80;45.50;;;;;;5013787;28;20263;-70
2022/05/01 07:29:58;;;;;;;7.30;6.60;;;20.80;45.40;;;;;;5013738;28;20240;-69
2022/05/01 07:32:25;;;;;;;7.25;6.65;;;20.80;45.30;;;;;;5012504;28;20196;-69
2022/05/01 07:34:52;;;;;;;7.32;6.65;;;20.80;45.30;;;;;;5012654;28;20228;-69
2022/05/01 07:37:20;;;;;;;7.82;7.03;;;20.80;45.40;;;;;;5014405;28;20185;-69
2022/05/01 07:39:49;;;;;;;6.10;5.60;;;20.80;45.20;;;;;;5028904;28;20201;-69
2022/05/01 07:42:15;;;;;;;6.63;6.00;;;20.80;45.30;;;;;;5013460;28;20192;-69
2022/05/01 07:44:43;;;;;;;7.22;6.53;;;20.90;46.00;;;;;;5028872;28;20247;-69
2022/05/01 07:47:11;;;;;;;6.80;6.20;;;20.90;45.20;;;;;;5028641;28;20635;-69
2022/05/01 07:49:39;;;;;;;6.25;5.75;;;21.00;45.20;;;;;;5013469;28;20732;-69
2022/05/01 07:52:07;;;;;;;6.43;5.93;;;21.00;45.10;;;;;;5013713;28;20192;-69
2022/05/01 07:54:35;;;;;;;5.28;4.88;;;21.00;45.00;;;;;;5017504;28;20220;-69
2022/05/01 07:57:02;;;;;;;6.15;5.65;;;21.10;44.90;;;;;;5017445;28;20312;-69
2022/05/01 07:59:29;;;;;;;6.97;6.38;;;21.20;44.90;;;;;;5016171;28;20226;-69
2022/05/01 08:01:56;;;;;;;5.45;5.05;;;21.20;44.70;;;;;;5032970;28;20200;-69
2022/05/01 08:04:34;;;;;;;5.78;5.28;;;21.20;44.70;;;;;;5017307;28;20193;-71
2022/05/01 08:07:01;;;;;;;6.88;6.28;;;21.30;44.70;;;;;;5016073;28;20355;-69
2022/05/01 08:09:29;;;;;;;7.00;6.40;;;21.30;44.30;;;;;;5017212;28;20244;-69
2022/05/01 08:11:56;;;;;;;6.97;6.38;;;21.30;44.20;;;;;;5032427;28;20682;-69
2022/05/01 08:14:23;;;;;;;6.22;5.72;;;21.30;44.90;;;;;;5032348;28;20197;-69
2022/05/01 08:16:50;;;;;;;6.97;6.28;;;21.30;44.80;;;;;;5017182;28;20181;-70
2022/05/01 08:22:04;;;;;;;7.55;6.80;;;21.30;44.30;;;;;;5015992;28;20189;-69
2022/05/01 08:24:31;;;;;;;7.88;7.18;;;21.30;44.40;;;;;;5016090;28;20207;-73
2022/05/01 08:27:04;;;;;;;6.63;6.03;;;21.40;44.70;;;;;;5033002;28;20221;-72
2022/05/01 08:29:32;;;;;;;7.20;6.55;;;21.40;44.70;;;;;;5015610;28;20596;-73
2022/05/01 08:32:00;;;;;;;7.18;6.50;;;21.30;44.70;;;;;;5015582;28;20200;-73
2022/05/01 08:34:27;;;;;;;7.18;6.57;;;21.40;44.90;;;;;;5015619;28;20196;-72
2022/05/01 08:36:56;;;;;;;7.25;6.40;;;21.40;44.90;;;;;;5015614;28;20212;-73
2022/05/01 08:39:24;;;;;;;6.65;5.95;;;21.40;45.00;;;;;;5031991;28;20632;-73
2022/05/01 08:41:51;;;;;;;6.70;6.10;;;21.40;45.10;;;;;;5032934;28;20201;-72
2022/05/01 08:44:22;;;;;;;6.55;6.05;;;21.40;45.00;;;;;;5032999;28;20193;-72
2022/05/01 08:46:56;;;;;;;7.05;6.45;;;21.40;45.10;;;;;;5015480;28;20286;-73
2022/05/01 08:49:23;;;;;;;551.13;323.83;;;21.40;45.20;;;;;;5017567;28;20216;-73
2022/05/01 08:51:50;;;;;;;436.13;303.38;;;21.40;48.30;;;;;;5018305;28;20196;-73
2022/05/01 08:54:17;;;;;;;469.65;389.67;;;21.40;51.00;;;;;;5016477;28;20199;-74
2022/05/01 08:56:46;;;;;;;206.80;168.10;;;21.50;50.60;;;;;;5015398;28;20196;-73
2022/05/01 08:59:14;;;;;;;168.48;128.30;;;21.50;50.20;;;;;;5015740;28;20259;-73
2022/05/01 09:01:42;;;;;;;140.85;108.68;;;21.50;49.30;;;;;;5031602;28;20724;-73
2022/05/01 09:04:09;;;;;;;138.43;105.32;;;21.60;48.40;;;;;;5014195;28;20204;-74
2022/05/01 09:06:37;;;;;;;103.72;82.57;;;21.60;48.30;;;;;;5014831;28;20248;-73
2022/05/01 09:09:05;;;;;;;98.20;74.97;;;21.60;47.10;;;;;;5015896;28;20224;-73
2022/05/01 09:14:18;;;;;;;103.38;74.20;;;21.70;47.10;;;;;;5014826;28;20568;-74
2022/05/01 09:22:23;;;;;;;70.40;59.10;;;21.80;46.70;;;;;;5111250;28;20181;-60
2022/05/01 09:25:19;;;;;;;77.00;56.00;;;21.80;46.10;;;;;;5111181;28;20196;-60
2022/05/01 09:27:49;;;;;;;67.32;50.40;;;21.80;46.00;;;;;;5111318;28;20205;-60
2022/05/01 09:30:19;;;;;;;66.05;49.42;;;21.90;45.30;;;;;;5110983;28;20181;-60
2022/05/01 09:32:47;;;;;;;62.25;48.70;;;21.90;45.00;;;;;;5111076;28;20202;-61
2022/05/01 09:35:17;;;;;;;58.15;45.55;;;22.00;45.20;;;;;;5111854;28;20660;-61
2022/05/01 09:37:45;;;;;;;53.80;41.53;;;22.00;45.20;;;;;;5110903;28;20213;-61
2022/05/01 09:40:13;;;;;;;55.40;42.42;;;22.10;45.40;;;;;;5109602;28;20264;-60
2022/05/01 09:42:40;;;;;;;53.38;41.45;;;22.10;44.80;;;;;;5111266;28;20186;-60
2022/05/01 09:45:11;;;;;;;52.17;38.67;;;22.20;44.10;;;;;;5109521;28;20615;-60
2022/05/01 09:47:39;;;;;;;39.42;29.02;;;22.30;44.10;;;;;;5109619;28;20232;-61
2022/05/01 09:50:07;;;;;;;39.80;31.00;;;22.40;44.50;;;;;;5110770;28;20618;-61
2022/05/01 09:52:58;;;;;;;40.22;30.17;;;22.60;44.40;;;;;;5109406;28;20201;-60
2022/05/01 09:55:26;;;;;;;32.25;28.73;;;22.80;44.20;;;;;;5110625;28;20664;-61
2022/05/01 09:58:06;;;;;;;44.42;32.17;;;22.90;43.80;;;;;;5110378;28;20217;-60
2022/05/01 10:00:38;;;;;;;29.13;21.83;;;23.10;43.60;;;;;;5110777;28;20188;-60
2022/05/01 10:03:24;;;;;;;32.00;25.38;;;23.20;43.30;;;;;;5110540;28;20197;-61
2022/05/01 10:05:53;;;;;;;42.80;31.83;;;23.30;42.90;;;;;;5110726;28;20614;-60
2022/05/01 10:08:21;;;;;;;32.00;24.83;;;23.40;42.70;;;;;;5110299;28;20767;-60
2022/05/01 10:10:49;;;;;;;35.78;22.60;;;23.40;42.50;;;;;;5109011;28;20250;-60
2022/05/01 10:13:16;;;;;;;32.35;24.67;;;23.40;42.50;;;;;;5110280;28;20193;-60
2022/05/01 10:15:43;;;;;;;36.35;27.42;;;23.40;42.50;;;;;;5110293;28;20182;-60
2022/05/01 10:18:11;;;;;;;31.55;25.17;;;23.30;43.30;;;;;;5218590;22;20227;-72
2022/05/01 10:20:38;;;;;;;25.55;20.35;;;23.30;42.50;;;;;;5049278;28;20196;-71
2022/05/01 10:23:06;;;;;;;28.83;24.15;;;23.30;42.90;;;;;;5048461;28;20188;-72
2022/05/01 10:25:37;;;;;;;27.70;22.02;;;23.30;43.30;;;;;;5048419;28;20200;-72
2022/05/01 10:28:06;;;;;;;26.55;20.90;;;23.30;43.20;;;;;;5050063;28;20212;-72
2022/05/01 10:33:47;;;;;;;29.27;22.38;;;23.40;43.50;;;;;;5038171;28;20196;-72
2022/05/01 10:36:45;;;;;;;25.73;20.05;;;23.40;43.60;;;;;;5036310;28;20242;-72
2022/05/01 10:39:15;;;;;;;24.52;20.17;;;23.40;43.40;;;;;;5030643;28;20782;-72
2022/05/01 10:41:44;;;;;;;20.75;17.95;;;23.40;43.70;;;;;;5036268;28;20196;-72
2022/05/01 10:44:26;;;;;;;24.67;18.88;;;23.40;43.60;;;;;;5035970;28;20200;-72
2022/05/01 10:46:53;;;;;;;23.88;17.02;;;23.40;43.30;;;;;;5036965;28;20227;-72
2022/05/01 10:49:33;;;;;;;25.20;18.10;;;23.40;43.40;;;;;;5035478;28;20196;-72
2022/05/01 10:52:18;;;;;;;23.02;16.80;;;23.50;43.50;;;;;;5039053;28;20172;-73
2022/05/01 10:54:52;;;;;;;20.80;14.63;;;23.60;43.70;;;;;;5036907;28;20204;-72
2022/05/01 10:57:21;;;;;;;17.63;14.43;;;23.60;43.50;;;;;;5036160;28;20257;-73
2022/05/01 11:00:05;;;;;;;22.00;16.25;;;23.60;43.30;;;;;;5035915;28;20692;-73
2022/05/01 11:02:39;;;;;;;20.63;15.02;;;23.60;43.30;;;;;;5033505;28;20200;-72
2022/05/01 11:05:08;;;;;;;18.58;14.95;;;23.60;43.20;;;;;;5035193;28;20257;-72
2022/05/01 11:07:37;;;;;;;18.75;13.43;;;23.60;42.90;;;;;;5034534;28;20224;-70
2022/05/01 11:10:07;;;;;;;19.88;14.32;;;23.60;43.50;;;;;;5034296;28;20254;-73
2022/05/01 11:12:36;;;;;;;18.48;13.38;;;23.60;43.40;;;;;;5034321;28;20208;-72
2022/05/01 11:15:04;;;;;;;15.95;13.18;;;23.60;43.10;;;;;;5034514;28;20204;-72
2022/05/01 11:17:50;;;;;;;15.70;13.30;;;23.60;42.90;;;;;;5034085;28;20220;-73
2022/05/01 11:20:31;;;;;;;18.77;12.85;;;23.60;42.60;;;;;;5035565;28;20681;-72
2022/05/01 11:22:58;;;;;;;15.30;12.23;;;23.60;42.60;;;;;;5034221;28;20299;-72
2022/05/01 11:25:39;;;;;;;19.88;12.05;;;23.60;42.70;;;;;;5033989;28;20200;-72
2022/05/01 11:28:07;;;;;;;18.88;11.80;;;23.60;42.60;;;;;;5035175;28;20246;-73
2022/05/01 11:30:35;;;;;;;16.30;11.18;;;23.60;43.00;;;;;;5033886;28;20223;-73
2022/05/01 11:33:03;;;;;;;14.82;10.90;;;23.70;42.50;;;;;;5033960;28;20204;-72
2022/05/01 11:35:55;;;;;;;14.40;10.68;;;23.70;42.40;;;;;;5035160;28;20192;-73
2022/05/01 11:38:23;;;;;;;13.02;9.65;;;23.70;42.20;;;;;;5033788;28;20227;-73
2022/05/01 11:40:56;;;;;;;13.48;9.88;;;23.70;42.30;;;;;;5034388;28;20192;-72
2022/05/01 11:43:28;;;;;;;13.88;9.52;;;23.80;42.00;;;;;;5033639;28;20200;-73
2022/05/01 11:45:55;;;;;;;13.43;9.45;;;23.80;42.10;;;;;;5035694;28;20192;-73
2022/05/01 11:48:22;;;;;;;12.25;9.38;;;23.70;42.00;;;;;;5033591;28;20216;-73
2022/05/01 11:50:50;;;;;;;12.88;9.32;;;23.80;42.10;;;;;;5033937;28;20554;-72
2022/05/01 11:53:19;;;;;;;11.63;9.05;;;23.70;41.90;;;;;;5033472;28;20200;-72
2022/05/01 12:04:23;;;;;;;12.25;9.07;;;23.80;42.00;;;;;;5034576;28;20548;-72
2022/05/01 12:06:58;;;;;;;13.65;9.00;;;23.80;41.60;;;;;;5034921;28;20320;-72
2022/05/01 12:09:25;;;;;;;12.43;8.38;;;23.80;41.70;;;;;;5033374;28;20212;-73
2022/05/01 12:11:52;;;;;;;10.07;7.57;;;23.80;41.40;;;;;;5033211;28;20231;-72
2022/05/01 12:14:21;;;;;;;9.05;7.85;;;23.80;42.40;;;;;;5033112;28;20208;-72
2022/05/01 12:16:48;;;;;;;10.30;7.78;;;23.80;41.60;;;;;;5033142;28;20216;-72
2022/05/01 12:19:15;;;;;;;10.80;7.35;;;23.80;41.60;;;;;;5032758;28;20220;-72
2022/05/01 12:21:43;;;;;;;9.52;7.28;;;23.80;41.60;;;;;;5032940;28;20203;-72
2022/05/01 12:24:11;;;;;;;9.40;7.18;;;23.80;41.70;;;;;;5032914;28;20203;-73
2022/05/01 12:26:39;;;;;;;8.77;7.45;;;23.80;42.20;;;;;;5032865;28;20318;-72
2022/05/01 12:29:10;;;;;;;9.40;7.25;;;23.70;41.50;;;;;;5034171;28;20184;-73
2022/05/01 12:32:07;;;;;;;9.40;7.03;;;23.70;41.60;;;;;;5034036;28;20292;-72
2022/05/01 12:34:36;;;;;;;9.18;7.00;;;23.70;41.60;;;;;;5032787;28;20193;-72
2022/05/01 12:37:05;;;;;;;9.38;6.97;;;23.70;41.60;;;;;;5032750;28;20270;-73
2022/05/01 12:39:32;;;;;;;7.90;6.50;;;23.70;41.50;;;;;;5032531;28;20220;-72
2022/05/01 12:45:06;;;;;;;8.00;6.55;;;23.60;41.60;;;;;;5032594;28;20194;-73
2022/05/01 12:47:36;;;;;;;8.13;6.28;;;23.60;41.40;;;;;;5032542;28;20273;-72
2022/05/01 12:50:04;;;;;;;9.70;6.57;;;23.60;41.50;;;;;;5032558;28;20203;-72
2022/05/01 12:52:31;;;;;;;8.80;6.30;;;23.60;42.10;;;;;;5032287;28;20196;-73
2022/05/01 12:55:06;;;;;;;8.10;6.20;;;23.60;41.40;;;;;;5032746;28;20204;-72
2022/05/01 12:57:33;;;;;;;7.82;6.93;;;23.70;41.40;;;;;;5032997;28;20228;-73
2022/05/01 13:00:00;;;;;;;8.05;5.85;;;23.60;41.00;;;;;;5032990;28;20222;-73
2022/05/01 13:02:27;;;;;;;7.75;6.03;;;23.70;40.90;;;;;;5032539;28;20204;-73
2022/05/01 13:04:59;;;;;;;7.85;5.60;;;23.70;41.00;;;;;;5032706;28;20204;-73
2022/05/01 13:07:29;;;;;;;6.38;5.55;;;23.60;41.50;;;;;;5034267;28;20216;-73
2022/05/01 13:09:56;;;;;;;7.43;5.60;;;23.70;41.60;;;;;;5034168;28;20192;-73
2022/05/01 13:12:30;;;;;;;6.35;5.65;;;23.70;41.40;;;;;;5032773;28;20744;-73
2022/05/01 13:14:58;;;;;;;7.10;5.47;;;23.70;41.60;;;;;;5033780;28;20219;-73
2022/05/01 13:17:27;;;;;;;7.80;5.50;;;23.70;41.80;;;;;;5032564;28;20219;-74
2022/05/01 13:19:55;;;;;;;9.07;5.07;;;23.80;41.70;;;;;;5032662;28;20208;-73
2022/05/01 13:22:23;;;;;;;7.00;5.78;;;23.80;41.90;;;;;;5032752;28;20192;-73
2022/05/01 13:24:52;;;;;;;6.63;5.55;;;23.80;41.60;;;;;;5033219;28;20228;-69
2022/05/01 13:27:19;;;;;;;6.60;5.88;;;23.80;41.50;;;;;;5032438;28;20227;-71
2022/05/01 13:29:46;;;;;;;6.30;5.70;;;23.80;41.40;;;;;;5033442;28;20196;-71